sensor_id;sensor_type;location;lat;lon;timestamp;P1;durP1;ratioP1;P2;durP2;ratioP2
62696;SDS011;48761;42.680;23.312;2023-04-01T00:02:19;32.75;;;14.90;;
62696;SDS011;48761;42.680;23.312;2023-04-01T00:04:44;30.90;;;15.15;;
62696;SDS011;48761;42.680;23.312;2023-04-01T00:07:10;35.97;;;17.92;;
62696;SDS011;48761;42.680;23.312;2023-04-01T00:09:36;38.53;;;19.75;;
62696;SDS011;48761;42.680;23.312;2023-04-01T00:12:02;33.70;;;17.25;;
62696;SDS011;48761;42.680;23.312;2023-04-01T00:14:29;38.60;;;16.88;;
62696;SDS011;48761;42.680;23.312;2023-04-01T00:16:55;38.72;;;17.35;;
62696;SDS011;48761;42.680;23.312;2023-04-01T00:19:22;36.28;;;17.40;;
62696;SDS011;48761;42.680;23.312;2023-04-01T00:21:47;34.95;;;16.42;;
62696;SDS011;48761;42.680;23.312;2023-04-01T00:24:13;31.55;;;16.52;;
62696;SDS011;48761;42.680;23.312;2023-04-01T00:26:39;28.42;;;15.98;;
62696;SDS011;48761;42.680;23.312;2023-04-01T00:29:05;26.23;;;13.85;;
62696;SDS011;48761;42.680;23.312;2023-04-01T00:31:31;25.10;;;13.43;;
62696;SDS011;48761;42.680;23.312;2023-04-01T00:33:57;27.25;;;13.98;;
62696;SDS011;48761;42.680;23.312;2023-04-01T00:36:23;26.85;;;14.52;;
62696;SDS011;48761;42.680;23.312;2023-04-01T00:38:49;24.23;;;14.25;;
62696;SDS011;48761;42.680;23.312;2023-04-01T00:41:16;29.27;;;14.77;;
62696;SDS011;48761;42.680;23.312;2023-04-01T00:43:43;25.10;;;15.43;;
62696;SDS011;48761;42.680;23.312;2023-04-01T00:46:11;30.35;;;15.70;;
62696;SDS011;48761;42.680;23.312;2023-04-01T00:48:38;27.85;;;15.57;;
62696;SDS011;48761;42.680;23.312;2023-04-01T00:51:08;28.27;;;15.45;;
62696;SDS011;48761;42.680;23.312;2023-04-01T00:53:41;31.10;;;16.08;;
62696;SDS011;48761;42.680;23.312;2023-04-01T00:56:21;28.75;;;15.07;;
62696;SDS011;48761;42.680;23.312;2023-04-01T00:58:54;29.75;;;15.50;;
62696;SDS011;48761;42.680;23.312;2023-04-01T01:01:25;26.20;;;14.00;;
62696;SDS011;48761;42.680;23.312;2023-04-01T01:03:52;24.40;;;14.88;;
62696;SDS011;48761;42.680;23.312;2023-04-01T01:06:43;24.83;;;15.30;;
62696;SDS011;48761;42.680;23.312;2023-04-01T01:14:34;23.38;;;12.05;;
62696;SDS011;48761;42.680;23.312;2023-04-01T01:22:33;21.88;;;11.20;;
62696;SDS011;48761;42.680;23.312;2023-04-01T01:28:00;20.65;;;11.18;;
62696;SDS011;48761;42.680;23.312;2023-04-01T01:30:47;19.55;;;11.15;;
62696;SDS011;48761;42.680;23.312;2023-04-01T01:36:02;21.50;;;10.38;;
62696;SDS011;48761;42.680;23.312;2023-04-01T01:38:32;20.08;;;10.30;;
62696;SDS011;48761;42.680;23.312;2023-04-01T01:41:00;19.20;;;9.15;;
62696;SDS011;48761;42.680;23.312;2023-04-01T01:43:30;16.02;;;9.25;;
62696;SDS011;48761;42.680;23.312;2023-04-01T01:46:04;16.40;;;9.35;;
62696;SDS011;48761;42.680;23.312;2023-04-01T01:48:34;14.88;;;8.27;;
62696;SDS011;48761;42.680;23.312;2023-04-01T01:51:03;16.08;;;8.80;;
62696;SDS011;48761;42.680;23.312;2023-04-01T01:53:31;21.98;;;9.38;;
62696;SDS011;48761;42.680;23.312;2023-04-01T01:55:57;21.35;;;9.50;;
62696;SDS011;48761;42.680;23.312;2023-04-01T01:58:33;17.83;;;9.35;;
62696;SDS011;48761;42.680;23.312;2023-04-01T02:01:17;13.73;;;8.52;;
62696;SDS011;48761;42.680;23.312;2023-04-01T02:03:53;15.88;;;7.43;;
62696;SDS011;48761;42.680;23.312;2023-04-01T02:06:24;14.95;;;8.10;;
62696;SDS011;48761;42.680;23.312;2023-04-01T02:11:24;14.18;;;8.15;;
62696;SDS011;48761;42.680;23.312;2023-04-01T02:13:56;16.17;;;8.43;;
62696;SDS011;48761;42.680;23.312;2023-04-01T02:19:29;18.30;;;7.75;;
62696;SDS011;48761;42.680;23.312;2023-04-01T02:21:59;21.48;;;8.32;;
62696;SDS011;48761;42.680;23.312;2023-04-01T02:24:28;15.60;;;7.88;;
62696;SDS011;48761;42.680;23.312;2023-04-01T02:26:57;17.55;;;8.27;;
62696;SDS011;48761;42.680;23.312;2023-04-01T02:29:24;18.35;;;8.60;;
62696;SDS011;48761;42.680;23.312;2023-04-01T02:31:50;17.20;;;7.63;;
62696;SDS011;48761;42.680;23.312;2023-04-01T02:34:18;13.77;;;7.80;;
62696;SDS011;48761;42.680;23.312;2023-04-01T02:36:45;20.10;;;8.02;;
62696;SDS011;48761;42.680;23.312;2023-04-01T02:39:12;17.63;;;8.60;;
62696;SDS011;48761;42.680;23.312;2023-04-01T02:41:42;18.42;;;7.90;;
62696;SDS011;48761;42.680;23.312;2023-04-01T02:44:10;21.65;;;9.98;;
62696;SDS011;48761;42.680;23.312;2023-04-01T02:46:38;17.23;;;8.27;;
62696;SDS011;48761;42.680;23.312;2023-04-01T02:49:04;21.45;;;8.68;;
62696;SDS011;48761;42.680;23.312;2023-04-01T02:51:31;16.77;;;8.15;;
62696;SDS011;48761;42.680;23.312;2023-04-01T02:53:58;15.48;;;7.85;;
62696;SDS011;48761;42.680;23.312;2023-04-01T02:56:23;16.80;;;9.00;;
62696;SDS011;48761;42.680;23.312;2023-04-01T02:58:49;17.17;;;9.57;;
62696;SDS011;48761;42.680;23.312;2023-04-01T03:01:15;18.48;;;8.93;;
62696;SDS011;48761;42.680;23.312;2023-04-01T03:03:41;17.50;;;8.68;;
62696;SDS011;48761;42.680;23.312;2023-04-01T03:06:11;17.13;;;8.68;;
62696;SDS011;48761;42.680;23.312;2023-04-01T03:08:39;16.58;;;8.98;;
62696;SDS011;48761;42.680;23.312;2023-04-01T03:11:05;17.08;;;9.80;;
62696;SDS011;48761;42.680;23.312;2023-04-01T03:13:32;20.00;;;10.93;;
62696;SDS011;48761;42.680;23.312;2023-04-01T03:15:58;22.40;;;12.15;;
62696;SDS011;48761;42.680;23.312;2023-04-01T03:18:24;22.58;;;13.52;;
62696;SDS011;48761;42.680;23.312;2023-04-01T03:20:50;27.55;;;16.30;;
62696;SDS011;48761;42.680;23.312;2023-04-01T03:23:16;30.13;;;16.35;;
62696;SDS011;48761;42.680;23.312;2023-04-01T03:25:42;31.52;;;18.95;;
62696;SDS011;48761;42.680;23.312;2023-04-01T03:28:08;31.42;;;16.98;;
62696;SDS011;48761;42.680;23.312;2023-04-01T03:30:34;25.85;;;13.32;;
62696;SDS011;48761;42.680;23.312;2023-04-01T03:33:00;22.27;;;11.60;;
62696;SDS011;48761;42.680;23.312;2023-04-01T03:35:27;19.70;;;10.93;;
62696;SDS011;48761;42.680;23.312;2023-04-01T03:37:53;24.80;;;12.07;;
62696;SDS011;48761;42.680;23.312;2023-04-01T03:40:19;19.55;;;11.55;;
62696;SDS011;48761;42.680;23.312;2023-04-01T03:42:46;26.63;;;12.20;;
62696;SDS011;48761;42.680;23.312;2023-04-01T03:45:12;21.13;;;11.02;;
62696;SDS011;48761;42.680;23.312;2023-04-01T03:47:39;22.35;;;12.25;;
62696;SDS011;48761;42.680;23.312;2023-04-01T03:50:05;23.67;;;12.40;;
62696;SDS011;48761;42.680;23.312;2023-04-01T03:52:32;21.42;;;12.25;;
62696;SDS011;48761;42.680;23.312;2023-04-01T03:54:58;23.73;;;11.93;;
62696;SDS011;48761;42.680;23.312;2023-04-01T03:57:24;16.00;;;10.25;;
62696;SDS011;48761;42.680;23.312;2023-04-01T03:59:50;21.80;;;10.05;;
62696;SDS011;48761;42.680;23.312;2023-04-01T04:02:16;20.05;;;11.07;;
62696;SDS011;48761;42.680;23.312;2023-04-01T04:04:42;18.42;;;9.20;;
62696;SDS011;48761;42.680;23.312;2023-04-01T04:07:08;19.27;;;10.02;;
62696;SDS011;48761;42.680;23.312;2023-04-01T04:09:34;26.98;;;11.30;;
62696;SDS011;48761;42.680;23.312;2023-04-01T04:12:00;22.13;;;10.05;;
62696;SDS011;48761;42.680;23.312;2023-04-01T04:14:26;16.52;;;9.30;;
62696;SDS011;48761;42.680;23.312;2023-04-01T04:16:52;19.45;;;9.20;;
62696;SDS011;48761;42.680;23.312;2023-04-01T04:19:18;22.08;;;10.38;;
62696;SDS011;48761;42.680;23.312;2023-04-01T04:21:44;17.92;;;10.50;;
62696;SDS011;48761;42.680;23.312;2023-04-01T04:24:10;17.35;;;9.68;;
62696;SDS011;48761;42.680;23.312;2023-04-01T04:26:36;20.77;;;10.55;;
62696;SDS011;48761;42.680;23.312;2023-04-01T04:29:02;20.08;;;10.75;;
62696;SDS011;48761;42.680;23.312;2023-04-01T04:31:28;22.17;;;7.20;;
62696;SDS011;48761;42.680;23.312;2023-04-01T04:33:54;17.55;;;7.75;;
62696;SDS011;48761;42.680;23.312;2023-04-01T04:36:21;15.73;;;8.10;;
62696;SDS011;48761;42.680;23.312;2023-04-01T04:38:47;22.92;;;8.23;;
62696;SDS011;48761;42.680;23.312;2023-04-01T04:41:14;18.55;;;8.20;;
62696;SDS011;48761;42.680;23.312;2023-04-01T04:43:41;21.73;;;8.90;;
62696;SDS011;48761;42.680;23.312;2023-04-01T04:46:08;12.98;;;8.27;;
62696;SDS011;48761;42.680;23.312;2023-04-01T04:48:35;18.15;;;8.35;;
62696;SDS011;48761;42.680;23.312;2023-04-01T04:51:01;21.85;;;9.38;;
62696;SDS011;48761;42.680;23.312;2023-04-01T04:53:27;15.65;;;8.55;;
62696;SDS011;48761;42.680;23.312;2023-04-01T04:55:53;21.88;;;8.88;;
62696;SDS011;48761;42.680;23.312;2023-04-01T04:58:19;18.48;;;9.70;;
62696;SDS011;48761;42.680;23.312;2023-04-01T05:00:45;28.55;;;12.07;;
62696;SDS011;48761;42.680;23.312;2023-04-01T05:03:11;18.98;;;10.30;;
62696;SDS011;48761;42.680;23.312;2023-04-01T05:05:38;18.67;;;7.30;;
62696;SDS011;48761;42.680;23.312;2023-04-01T05:08:04;12.52;;;6.80;;
62696;SDS011;48761;42.680;23.312;2023-04-01T05:10:31;16.25;;;8.15;;
62696;SDS011;48761;42.680;23.312;2023-04-01T05:12:57;16.15;;;8.88;;
62696;SDS011;48761;42.680;23.312;2023-04-01T05:15:23;18.33;;;8.13;;
62696;SDS011;48761;42.680;23.312;2023-04-01T05:17:50;16.48;;;7.65;;
62696;SDS011;48761;42.680;23.312;2023-04-01T05:20:16;13.05;;;7.68;;
62696;SDS011;48761;42.680;23.312;2023-04-01T05:22:42;19.58;;;7.60;;
62696;SDS011;48761;42.680;23.312;2023-04-01T05:25:09;15.13;;;7.32;;
62696;SDS011;48761;42.680;23.312;2023-04-01T05:27:35;12.75;;;7.50;;
62696;SDS011;48761;42.680;23.312;2023-04-01T05:30:00;17.63;;;7.75;;
62696;SDS011;48761;42.680;23.312;2023-04-01T05:32:26;18.17;;;8.35;;
62696;SDS011;48761;42.680;23.312;2023-04-01T05:34:53;18.38;;;9.40;;
62696;SDS011;48761;42.680;23.312;2023-04-01T05:37:19;17.65;;;8.55;;
62696;SDS011;48761;42.680;23.312;2023-04-01T05:39:45;19.58;;;8.23;;
62696;SDS011;48761;42.680;23.312;2023-04-01T05:42:11;19.85;;;7.95;;
62696;SDS011;48761;42.680;23.312;2023-04-01T05:44:37;14.57;;;8.00;;
62696;SDS011;48761;42.680;23.312;2023-04-01T05:47:03;24.00;;;8.98;;
62696;SDS011;48761;42.680;23.312;2023-04-01T05:49:30;12.27;;;6.15;;
62696;SDS011;48761;42.680;23.312;2023-04-01T05:51:56;20.13;;;6.47;;
62696;SDS011;48761;42.680;23.312;2023-04-01T05:54:22;18.83;;;6.63;;
62696;SDS011;48761;42.680;23.312;2023-04-01T05:56:49;14.00;;;6.45;;
62696;SDS011;48761;42.680;23.312;2023-04-01T05:59:15;12.50;;;5.20;;
62696;SDS011;48761;42.680;23.312;2023-04-01T06:01:41;15.85;;;5.93;;
62696;SDS011;48761;42.680;23.312;2023-04-01T06:04:10;10.77;;;5.75;;
62696;SDS011;48761;42.680;23.312;2023-04-01T06:06:41;12.75;;;5.35;;
62696;SDS011;48761;42.680;23.312;2023-04-01T06:15:03;9.93;;;5.20;;
62696;SDS011;48761;42.680;23.312;2023-04-01T06:20:25;9.88;;;4.60;;
62696;SDS011;48761;42.680;23.312;2023-04-01T06:29:01;9.52;;;4.68;;
62696;SDS011;48761;42.680;23.312;2023-04-01T06:37:11;8.15;;;3.95;;
62696;SDS011;48761;42.680;23.312;2023-04-01T06:40:03;9.18;;;4.57;;
62696;SDS011;48761;42.680;23.312;2023-04-01T06:48:27;19.65;;;6.40;;
62696;SDS011;48761;42.680;23.312;2023-04-01T06:51:02;18.98;;;5.70;;
62696;SDS011;48761;42.680;23.312;2023-04-01T06:56:33;12.60;;;5.90;;
62696;SDS011;48761;42.680;23.312;2023-04-01T07:01:53;16.80;;;6.20;;
62696;SDS011;48761;42.680;23.312;2023-04-01T07:04:32;13.52;;;5.47;;
62696;SDS011;48761;42.680;23.312;2023-04-01T07:07:21;16.45;;;5.80;;
62696;SDS011;48761;42.680;23.312;2023-04-01T07:10:11;14.45;;;5.90;;
62696;SDS011;48761;42.680;23.312;2023-04-01T07:12:53;12.90;;;6.03;;
62696;SDS011;48761;42.680;23.312;2023-04-01T07:18:16;18.45;;;6.13;;
62696;SDS011;48761;42.680;23.312;2023-04-01T07:20:48;16.83;;;5.22;;
62696;SDS011;48761;42.680;23.312;2023-04-01T07:23:22;22.17;;;6.32;;
62696;SDS011;48761;42.680;23.312;2023-04-01T07:25:52;13.10;;;5.95;;
62696;SDS011;48761;42.680;23.312;2023-04-01T07:28:26;15.30;;;5.70;;
62696;SDS011;48761;42.680;23.312;2023-04-01T07:34:09;12.35;;;6.75;;
62696;SDS011;48761;42.680;23.312;2023-04-01T07:44:49;14.90;;;6.32;;
62696;SDS011;48761;42.680;23.312;2023-04-01T07:50:25;13.52;;;5.65;;
62696;SDS011;48761;42.680;23.312;2023-04-01T08:08:56;15.32;;;6.55;;
62696;SDS011;48761;42.680;23.312;2023-04-01T08:17:02;14.23;;;6.25;;
62696;SDS011;48761;42.680;23.312;2023-04-01T08:22:48;15.00;;;6.22;;
62696;SDS011;48761;42.680;23.312;2023-04-01T08:25:00;15.60;;;6.22;;
62696;SDS011;48761;42.680;23.312;2023-04-01T08:27:34;19.20;;;7.43;;
62696;SDS011;48761;42.680;23.312;2023-04-01T08:30:21;12.23;;;6.63;;
62696;SDS011;48761;42.680;23.312;2023-04-01T08:35:27;15.25;;;7.03;;
62696;SDS011;48761;42.680;23.312;2023-04-01T08:38:23;13.85;;;6.50;;
62696;SDS011;48761;42.680;23.312;2023-04-01T08:40:58;15.35;;;5.82;;
62696;SDS011;48761;42.680;23.312;2023-04-01T08:44:00;15.70;;;6.10;;
62696;SDS011;48761;42.680;23.312;2023-04-01T08:57:25;10.27;;;5.28;;
62696;SDS011;48761;42.680;23.312;2023-04-01T09:00:20;18.33;;;5.40;;
62696;SDS011;48761;42.680;23.312;2023-04-01T09:02:55;8.70;;;4.30;;
62696;SDS011;48761;42.680;23.312;2023-04-01T09:14:08;9.05;;;4.15;;
62696;SDS011;48761;42.680;23.312;2023-04-01T09:17:01;10.13;;;4.00;;
62696;SDS011;48761;42.680;23.312;2023-04-01T09:20:23;13.90;;;4.10;;
62696;SDS011;48761;42.680;23.312;2023-04-01T09:22:50;11.95;;;4.25;;
62696;SDS011;48761;42.680;23.312;2023-04-01T09:28:38;8.27;;;3.53;;
62696;SDS011;48761;42.680;23.312;2023-04-01T09:31:56;14.10;;;4.10;;
62696;SDS011;48761;42.680;23.312;2023-04-01T09:34:51;12.48;;;4.05;;
62696;SDS011;48761;42.680;23.312;2023-04-01T09:38:06;9.20;;;3.50;;
62696;SDS011;48761;42.680;23.312;2023-04-01T09:42:44;17.23;;;4.57;;
62696;SDS011;48761;42.680;23.312;2023-04-01T09:48:13;10.95;;;4.10;;
62696;SDS011;48761;42.680;23.312;2023-04-01T09:50:56;11.48;;;3.75;;
62696;SDS011;48761;42.680;23.312;2023-04-01T09:54:00;7.00;;;3.50;;
62696;SDS011;48761;42.680;23.312;2023-04-01T10:22:24;14.95;;;3.60;;
62696;SDS011;48761;42.680;23.312;2023-04-01T10:51:01;7.95;;;3.55;;
62696;SDS011;48761;42.680;23.312;2023-04-01T10:56:42;7.43;;;3.88;;
62696;SDS011;48761;42.680;23.312;2023-04-01T11:13:25;10.93;;;4.63;;
62696;SDS011;48761;42.680;23.312;2023-04-01T11:16:17;17.90;;;4.18;;
62696;SDS011;48761;42.680;23.312;2023-04-01T11:28:00;10.02;;;4.07;;
62696;SDS011;48761;42.680;23.312;2023-04-01T11:33:53;6.75;;;2.40;;
62696;SDS011;48761;42.680;23.312;2023-04-01T11:44:34;8.77;;;2.90;;
62696;SDS011;48761;42.680;23.312;2023-04-01T11:56:14;7.03;;;2.58;;
62696;SDS011;48761;42.680;23.312;2023-04-01T12:06:57;11.32;;;3.78;;
62696;SDS011;48761;42.680;23.312;2023-04-01T12:09:52;11.05;;;3.70;;
62696;SDS011;48761;42.680;23.312;2023-04-01T12:12:38;9.48;;;3.42;;
62696;SDS011;48761;42.680;23.312;2023-04-01T12:17:50;10.27;;;3.67;;
62696;SDS011;48761;42.680;23.312;2023-04-01T12:20:37;9.63;;;3.65;;
62696;SDS011;48761;42.680;23.312;2023-04-01T12:23:33;9.45;;;3.35;;
62696;SDS011;48761;42.680;23.312;2023-04-01T12:26:10;6.75;;;3.63;;
62696;SDS011;48761;42.680;23.312;2023-04-01T12:29:03;11.30;;;4.65;;
62696;SDS011;48761;42.680;23.312;2023-04-01T12:34:34;12.35;;;5.25;;
62696;SDS011;48761;42.680;23.312;2023-04-01T12:37:07;10.50;;;5.18;;
62696;SDS011;48761;42.680;23.312;2023-04-01T12:46:03;13.13;;;4.75;;
62696;SDS011;48761;42.680;23.312;2023-04-01T12:51:45;10.32;;;4.72;;
62696;SDS011;48761;42.680;23.312;2023-04-01T13:11:13;9.85;;;4.50;;
62696;SDS011;48761;42.680;23.312;2023-04-01T13:19:44;10.05;;;4.97;;
62696;SDS011;48761;42.680;23.312;2023-04-01T13:22:27;8.75;;;5.97;;
62696;SDS011;48761;42.680;23.312;2023-04-01T13:28:04;10.82;;;6.20;;
62696;SDS011;48761;42.680;23.312;2023-04-01T13:31:01;9.20;;;5.10;;
62696;SDS011;48761;42.680;23.312;2023-04-01T13:34:00;10.90;;;4.93;;
62696;SDS011;48761;42.680;23.312;2023-04-01T13:37:03;8.05;;;4.88;;
62696;SDS011;48761;42.680;23.312;2023-04-01T13:42:15;7.60;;;4.05;;
62696;SDS011;48761;42.680;23.312;2023-04-01T13:45:01;7.80;;;3.55;;
62696;SDS011;48761;42.680;23.312;2023-04-01T13:50:26;6.22;;;3.05;;
62696;SDS011;48761;42.680;23.312;2023-04-01T14:13:34;7.35;;;3.92;;
62696;SDS011;48761;42.680;23.312;2023-04-01T14:16:33;4.00;;;2.20;;
62696;SDS011;48761;42.680;23.312;2023-04-01T14:19:42;5.05;;;2.05;;
62696;SDS011;48761;42.680;23.312;2023-04-01T14:31:53;3.53;;;1.60;;
62696;SDS011;48761;42.680;23.312;2023-04-01T14:49:00;7.22;;;3.50;;
62696;SDS011;48761;42.680;23.312;2023-04-01T14:51:40;11.27;;;3.00;;
62696;SDS011;48761;42.680;23.312;2023-04-01T14:56:47;8.05;;;3.38;;
62696;SDS011;48761;42.680;23.312;2023-04-01T15:04:38;6.63;;;3.70;;
62696;SDS011;48761;42.680;23.312;2023-04-01T15:09:47;7.55;;;3.90;;
62696;SDS011;48761;42.680;23.312;2023-04-01T15:12:42;7.30;;;3.40;;
62696;SDS011;48761;42.680;23.312;2023-04-01T15:18:07;6.90;;;3.05;;
62696;SDS011;48761;42.680;23.312;2023-04-01T15:26:27;9.95;;;4.10;;
62696;SDS011;48761;42.680;23.312;2023-04-01T15:29:20;7.85;;;3.60;;
62696;SDS011;48761;42.680;23.312;2023-04-01T15:31:53;7.75;;;3.40;;
62696;SDS011;48761;42.680;23.312;2023-04-01T15:37:07;5.88;;;2.88;;
62696;SDS011;48761;42.680;23.312;2023-04-01T15:39:43;5.68;;;2.67;;
62696;SDS011;48761;42.680;23.312;2023-04-01T15:42:16;8.40;;;3.40;;
62696;SDS011;48761;42.680;23.312;2023-04-01T15:55:56;1.67;;;1.27;;
62696;SDS011;48761;42.680;23.312;2023-04-01T16:01:44;9.25;;;3.03;;
62696;SDS011;48761;42.680;23.312;2023-04-01T16:12:55;5.40;;;3.08;;
62696;SDS011;48761;42.680;23.312;2023-04-01T16:19:11;5.82;;;3.90;;
62696;SDS011;48761;42.680;23.312;2023-04-01T16:21:58;5.03;;;3.80;;
62696;SDS011;48761;42.680;23.312;2023-04-01T16:24:48;7.05;;;4.35;;
62696;SDS011;48761;42.680;23.312;2023-04-01T16:30:34;6.55;;;4.00;;
62696;SDS011;48761;42.680;23.312;2023-04-01T16:33:21;6.57;;;4.10;;
62696;SDS011;48761;42.680;23.312;2023-04-01T16:38:46;4.03;;;3.38;;
62696;SDS011;48761;42.680;23.312;2023-04-01T16:41:24;6.50;;;3.50;;
62696;SDS011;48761;42.680;23.312;2023-04-01T16:43:56;4.82;;;3.47;;
62696;SDS011;48761;42.680;23.312;2023-04-01T16:46:38;5.30;;;3.05;;
62696;SDS011;48761;42.680;23.312;2023-04-01T16:52:13;3.58;;;2.33;;
62696;SDS011;48761;42.680;23.312;2023-04-01T17:05:42;3.00;;;1.92;;
62696;SDS011;48761;42.680;23.312;2023-04-01T17:11:18;4.22;;;1.73;;
62696;SDS011;48761;42.680;23.312;2023-04-01T17:16:42;3.25;;;1.92;;
62696;SDS011;48761;42.680;23.312;2023-04-01T17:19:26;3.03;;;1.75;;
62696;SDS011;48761;42.680;23.312;2023-04-01T17:22:21;2.47;;;1.60;;
62696;SDS011;48761;42.680;23.312;2023-04-01T17:33:00;4.13;;;2.10;;
62696;SDS011;48761;42.680;23.312;2023-04-01T17:35:58;1.60;;;1.48;;
62696;SDS011;48761;42.680;23.312;2023-04-01T17:38:42;2.35;;;1.83;;
62696;SDS011;48761;42.680;23.312;2023-04-01T17:41:36;1.73;;;1.48;;
62696;SDS011;48761;42.680;23.312;2023-04-01T17:52:58;2.30;;;1.80;;
62696;SDS011;48761;42.680;23.312;2023-04-01T17:55:46;2.15;;;1.77;;
62696;SDS011;48761;42.680;23.312;2023-04-01T18:01:09;2.88;;;1.90;;
62696;SDS011;48761;42.680;23.312;2023-04-01T18:03:54;6.20;;;3.30;;
62696;SDS011;48761;42.680;23.312;2023-04-01T18:12:15;6.53;;;4.65;;
62696;SDS011;48761;42.680;23.312;2023-04-01T18:18:15;5.40;;;3.60;;
62696;SDS011;48761;42.680;23.312;2023-04-01T18:23:51;4.25;;;2.92;;
62696;SDS011;48761;42.680;23.312;2023-04-01T18:26:26;3.65;;;2.50;;
62696;SDS011;48761;42.680;23.312;2023-04-01T18:29:02;2.80;;;2.50;;
62696;SDS011;48761;42.680;23.312;2023-04-01T18:31:40;4.53;;;3.10;;
62696;SDS011;48761;42.680;23.312;2023-04-01T18:34:14;3.40;;;2.83;;
62696;SDS011;48761;42.680;23.312;2023-04-01T18:39:52;4.03;;;2.85;;
62696;SDS011;48761;42.680;23.312;2023-04-01T18:45:32;3.80;;;2.95;;
62696;SDS011;48761;42.680;23.312;2023-04-01T18:51:10;3.25;;;2.13;;
62696;SDS011;48761;42.680;23.312;2023-04-01T18:53:45;4.40;;;2.63;;
62696;SDS011;48761;42.680;23.312;2023-04-01T18:56:37;3.22;;;2.65;;
62696;SDS011;48761;42.680;23.312;2023-04-01T19:02:08;5.40;;;3.20;;
62696;SDS011;48761;42.680;23.312;2023-04-01T19:10:19;6.35;;;4.25;;
62696;SDS011;48761;42.680;23.312;2023-04-01T19:24:12;3.58;;;2.10;;
62696;SDS011;48761;42.680;23.312;2023-04-01T19:26:51;2.70;;;1.60;;
62696;SDS011;48761;42.680;23.312;2023-04-01T19:32:22;1.40;;;1.30;;
62696;SDS011;48761;42.680;23.312;2023-04-01T19:35:10;1.90;;;1.30;;
62696;SDS011;48761;42.680;23.312;2023-04-01T19:51:48;2.75;;;1.40;;
62696;SDS011;48761;42.680;23.312;2023-04-01T20:03:01;3.97;;;1.77;;
62696;SDS011;48761;42.680;23.312;2023-04-01T20:05:33;2.57;;;1.80;;
62696;SDS011;48761;42.680;23.312;2023-04-01T20:11:01;1.88;;;1.40;;
62696;SDS011;48761;42.680;23.312;2023-04-01T20:19:10;2.40;;;1.92;;
62696;SDS011;48761;42.680;23.312;2023-04-01T20:21:56;3.33;;;1.75;;
62696;SDS011;48761;42.680;23.312;2023-04-01T20:24:33;5.32;;;1.90;;
62696;SDS011;48761;42.680;23.312;2023-04-01T20:35:15;2.53;;;1.92;;
62696;SDS011;48761;42.680;23.312;2023-04-01T20:46:37;2.65;;;1.67;;
62696;SDS011;48761;42.680;23.312;2023-04-01T20:59:50;3.13;;;1.55;;
62696;SDS011;48761;42.680;23.312;2023-04-01T21:05:30;2.35;;;1.63;;
62696;SDS011;48761;42.680;23.312;2023-04-01T21:08:26;2.20;;;1.50;;
62696;SDS011;48761;42.680;23.312;2023-04-01T21:11:20;2.30;;;1.40;;
62696;SDS011;48761;42.680;23.312;2023-04-01T21:13:56;14.63;;;3.33;;
62696;SDS011;48761;42.680;23.312;2023-04-01T21:16:53;1.58;;;1.33;;
62696;SDS011;48761;42.680;23.312;2023-04-01T21:42:21;2.42;;;1.65;;
62696;SDS011;48761;42.680;23.312;2023-04-01T21:53:33;3.60;;;1.80;;
62696;SDS011;48761;42.680;23.312;2023-04-01T22:07:47;4.72;;;2.05;;
62696;SDS011;48761;42.680;23.312;2023-04-01T22:13:06;6.47;;;1.80;;
62696;SDS011;48761;42.680;23.312;2023-04-01T22:20:50;3.40;;;2.20;;
62696;SDS011;48761;42.680;23.312;2023-04-01T22:32:33;5.57;;;1.30;;
62696;SDS011;48761;42.680;23.312;2023-04-01T22:35:08;3.83;;;1.98;;
62696;SDS011;48761;42.680;23.312;2023-04-01T22:40:21;11.48;;;7.25;;
62696;SDS011;48761;42.680;23.312;2023-04-01T22:43:03;19.55;;;10.15;;
62696;SDS011;48761;42.680;23.312;2023-04-01T22:45:40;16.42;;;9.30;;
62696;SDS011;48761;42.680;23.312;2023-04-01T22:55:57;9.65;;;3.42;;
62696;SDS011;48761;42.680;23.312;2023-04-01T22:58:32;5.78;;;2.90;;
62696;SDS011;48761;42.680;23.312;2023-04-01T23:01:14;2.88;;;2.13;;
62696;SDS011;48761;42.680;23.312;2023-04-01T23:06:23;2.85;;;1.50;;
62696;SDS011;48761;42.680;23.312;2023-04-01T23:08:59;3.38;;;1.40;;
62696;SDS011;48761;42.680;23.312;2023-04-01T23:11:43;3.28;;;1.40;;
62696;SDS011;48761;42.680;23.312;2023-04-01T23:16:50;3.58;;;1.77;;
62696;SDS011;48761;42.680;23.312;2023-04-01T23:19:24;3.70;;;1.88;;
62696;SDS011;48761;42.680;23.312;2023-04-01T23:24:36;2.72;;;1.40;;
62696;SDS011;48761;42.680;23.312;2023-04-01T23:27:12;4.38;;;0.95;;
62696;SDS011;48761;42.680;23.312;2023-04-01T23:29:53;1.85;;;0.90;;
62696;SDS011;48761;42.680;23.312;2023-04-01T23:32:19;1.98;;;0.90;;
62696;SDS011;48761;42.680;23.312;2023-04-01T23:34:52;1.10;;;0.70;;
62696;SDS011;48761;42.680;23.312;2023-04-01T23:37:20;1.60;;;1.00;;
62696;SDS011;48761;42.680;23.312;2023-04-01T23:39:48;1.80;;;0.80;;
62696;SDS011;48761;42.680;23.312;2023-04-01T23:42:21;0.77;;;0.55;;
62696;SDS011;48761;42.680;23.312;2023-04-01T23:44:53;0.95;;;0.70;;
62696;SDS011;48761;42.680;23.312;2023-04-01T23:47:32;2.28;;;0.70;;
62696;SDS011;48761;42.680;23.312;2023-04-01T23:50:22;1.30;;;0.60;;
62696;SDS011;48761;42.680;23.312;2023-04-01T23:53:00;1.63;;;0.60;;
62696;SDS011;48761;42.680;23.312;2023-04-01T23:55:32;2.40;;;0.75;;
